sensor_id;sensor_type;location;lat;lon;timestamp;P1;durP1;ratioP1;P2;durP2;ratioP2
8113;SDS011;4099;52.684;9.918;2022-09-27T00:02:47;2.40;;;2.20;;
8113;SDS011;4099;52.684;9.918;2022-09-27T00:07:52;2.07;;;1.90;;
8113;SDS011;4099;52.684;9.918;2022-09-27T00:12:56;2.70;;;2.50;;
8113;SDS011;4099;52.684;9.918;2022-09-27T00:18:01;2.03;;;1.93;;
8113;SDS011;4099;52.684;9.918;2022-09-27T00:23:05;2.00;;;1.90;;
8113;SDS011;4099;52.684;9.918;2022-09-27T00:28:09;2.20;;;2.00;;
8113;SDS011;4099;52.684;9.918;2022-09-27T00:33:13;3.13;;;2.07;;
8113;SDS011;4099;52.684;9.918;2022-09-27T00:38:15;2.10;;;1.83;;
8113;SDS011;4099;52.684;9.918;2022-09-27T00:43:20;1.60;;;1.50;;
8113;SDS011;4099;52.684;9.918;2022-09-27T00:48:26;2.77;;;2.00;;
8113;SDS011;4099;52.684;9.918;2022-09-27T00:53:39;1.93;;;1.80;;
8113;SDS011;4099;52.684;9.918;2022-09-27T00:58:51;2.70;;;2.17;;
8113;SDS011;4099;52.684;9.918;2022-09-27T01:04:01;3.20;;;1.80;;
8113;SDS011;4099;52.684;9.918;2022-09-27T01:09:08;1.80;;;1.70;;
8113;SDS011;4099;52.684;9.918;2022-09-27T01:14:21;2.10;;;2.00;;
8113;SDS011;4099;52.684;9.918;2022-09-27T01:19:46;2.60;;;1.90;;
8113;SDS011;4099;52.684;9.918;2022-09-27T01:25:16;2.20;;;2.00;;
8113;SDS011;4099;52.684;9.918;2022-09-27T01:30:42;2.27;;;2.10;;
8113;SDS011;4099;52.684;9.918;2022-09-27T01:35:52;2.10;;;1.90;;
8113;SDS011;4099;52.684;9.918;2022-09-27T01:41:09;2.20;;;1.87;;
8113;SDS011;4099;52.684;9.918;2022-09-27T01:46:52;3.63;;;2.07;;
8113;SDS011;4099;52.684;9.918;2022-09-27T01:52:18;2.30;;;2.13;;
8113;SDS011;4099;52.684;9.918;2022-09-27T01:57:26;3.60;;;2.40;;
8113;SDS011;4099;52.684;9.918;2022-09-27T02:02:35;2.40;;;2.20;;
8113;SDS011;4099;52.684;9.918;2022-09-27T02:07:57;2.57;;;2.37;;
8113;SDS011;4099;52.684;9.918;2022-09-27T02:13:10;2.80;;;2.60;;
8113;SDS011;4099;52.684;9.918;2022-09-27T02:18:24;2.67;;;2.47;;
8113;SDS011;4099;52.684;9.918;2022-09-27T02:23:38;2.90;;;2.70;;
8113;SDS011;4099;52.684;9.918;2022-09-27T02:28:48;3.60;;;3.30;;
8113;SDS011;4099;52.684;9.918;2022-09-27T02:34:06;3.70;;;3.40;;
8113;SDS011;4099;52.684;9.918;2022-09-27T02:39:13;4.07;;;3.77;;
8113;SDS011;4099;52.684;9.918;2022-09-27T02:44:16;4.70;;;4.30;;
8113;SDS011;4099;52.684;9.918;2022-09-27T02:49:28;4.93;;;3.87;;
8113;SDS011;4099;52.684;9.918;2022-09-27T02:55:12;6.60;;;5.30;;
8113;SDS011;4099;52.684;9.918;2022-09-27T03:00:35;6.60;;;6.00;;
8113;SDS011;4099;52.684;9.918;2022-09-27T03:06:10;7.20;;;6.53;;
8113;SDS011;4099;52.684;9.918;2022-09-27T03:11:14;7.63;;;6.90;;
8113;SDS011;4099;52.684;9.918;2022-09-27T03:16:17;10.77;;;8.63;;
8113;SDS011;4099;52.684;9.918;2022-09-27T03:21:27;9.07;;;7.77;;
8113;SDS011;4099;52.684;9.918;2022-09-27T03:26:32;8.10;;;7.27;;
8113;SDS011;4099;52.684;9.918;2022-09-27T03:31:44;8.40;;;7.60;;
8113;SDS011;4099;52.684;9.918;2022-09-27T03:37:11;8.90;;;8.00;;
8113;SDS011;4099;52.684;9.918;2022-09-27T03:42:13;9.97;;;8.97;;
8113;SDS011;4099;52.684;9.918;2022-09-27T03:47:21;9.40;;;8.50;;
8113;SDS011;4099;52.684;9.918;2022-09-27T03:52:27;10.30;;;9.20;;
8113;SDS011;4099;52.684;9.918;2022-09-27T03:57:30;9.57;;;8.57;;
8113;SDS011;4099;52.684;9.918;2022-09-27T04:02:36;10.23;;;8.83;;
8113;SDS011;4099;52.684;9.918;2022-09-27T04:07:58;9.73;;;8.40;;
8113;SDS011;4099;52.684;9.918;2022-09-27T04:13:06;11.10;;;9.00;;
8113;SDS011;4099;52.684;9.918;2022-09-27T04:18:15;10.37;;;9.00;;
8113;SDS011;4099;52.684;9.918;2022-09-27T04:23:42;11.13;;;9.60;;
8113;SDS011;4099;52.684;9.918;2022-09-27T04:28:53;11.47;;;9.30;;
8113;SDS011;4099;52.684;9.918;2022-09-27T04:33:59;10.93;;;9.47;;
8113;SDS011;4099;52.684;9.918;2022-09-27T04:39:08;11.13;;;9.83;;
8113;SDS011;4099;52.684;9.918;2022-09-27T04:44:14;12.77;;;10.13;;
8113;SDS011;4099;52.684;9.918;2022-09-27T04:49:22;13.30;;;11.00;;
8113;SDS011;4099;52.684;9.918;2022-09-27T04:54:27;13.60;;;10.40;;
8113;SDS011;4099;52.684;9.918;2022-09-27T04:59:42;13.53;;;10.60;;
8113;SDS011;4099;52.684;9.918;2022-09-27T05:04:49;12.17;;;9.50;;
8113;SDS011;4099;52.684;9.918;2022-09-27T05:09:56;13.43;;;10.07;;
8113;SDS011;4099;52.684;9.918;2022-09-27T05:15:03;12.07;;;10.07;;
8113;SDS011;4099;52.684;9.918;2022-09-27T05:20:26;11.30;;;9.20;;
8113;SDS011;4099;52.684;9.918;2022-09-27T05:25:47;11.80;;;8.83;;
8113;SDS011;4099;52.684;9.918;2022-09-27T05:30:51;9.97;;;7.77;;
8113;SDS011;4099;52.684;9.918;2022-09-27T05:35:56;10.27;;;7.83;;
8113;SDS011;4099;52.684;9.918;2022-09-27T05:41:08;10.23;;;7.90;;
8113;SDS011;4099;52.684;9.918;2022-09-27T05:46:13;10.00;;;7.07;;
8113;SDS011;4099;52.684;9.918;2022-09-27T05:51:21;8.43;;;6.97;;
8113;SDS011;4099;52.684;9.918;2022-09-27T05:56:28;14.07;;;8.10;;
8113;SDS011;4099;52.684;9.918;2022-09-27T06:01:49;8.33;;;6.63;;
8113;SDS011;4099;52.684;9.918;2022-09-27T06:07:13;8.97;;;6.60;;
8113;SDS011;4099;52.684;9.918;2022-09-27T06:12:22;7.93;;;7.03;;
8113;SDS011;4099;52.684;9.918;2022-09-27T06:17:32;8.67;;;6.57;;
8113;SDS011;4099;52.684;9.918;2022-09-27T06:22:44;7.47;;;6.63;;
8113;SDS011;4099;52.684;9.918;2022-09-27T06:27:50;8.87;;;6.93;;
8113;SDS011;4099;52.684;9.918;2022-09-27T06:33:01;9.77;;;7.30;;
8113;SDS011;4099;52.684;9.918;2022-09-27T06:38:10;10.77;;;7.10;;
8113;SDS011;4099;52.684;9.918;2022-09-27T06:43:48;11.87;;;9.73;;
8113;SDS011;4099;52.684;9.918;2022-09-27T06:49:28;10.67;;;7.03;;
8113;SDS011;4099;52.684;9.918;2022-09-27T06:54:32;8.70;;;6.70;;
8113;SDS011;4099;52.684;9.918;2022-09-27T06:59:37;9.17;;;7.03;;
8113;SDS011;4099;52.684;9.918;2022-09-27T07:05:18;8.90;;;5.77;;
8113;SDS011;4099;52.684;9.918;2022-09-27T07:10:45;9.17;;;6.30;;
8113;SDS011;4099;52.684;9.918;2022-09-27T07:15:52;9.30;;;6.70;;
8113;SDS011;4099;52.684;9.918;2022-09-27T07:21:00;9.30;;;5.83;;
8113;SDS011;4099;52.684;9.918;2022-09-27T07:26:12;8.70;;;6.13;;
8113;SDS011;4099;52.684;9.918;2022-09-27T07:31:24;8.87;;;6.17;;
8113;SDS011;4099;52.684;9.918;2022-09-27T07:36:31;6.90;;;5.70;;
8113;SDS011;4099;52.684;9.918;2022-09-27T07:41:36;6.30;;;5.30;;
8113;SDS011;4099;52.684;9.918;2022-09-27T07:46:43;7.30;;;5.13;;
8113;SDS011;4099;52.684;9.918;2022-09-27T07:51:53;6.57;;;5.40;;
8113;SDS011;4099;52.684;9.918;2022-09-27T07:57:25;7.67;;;5.37;;
8113;SDS011;4099;52.684;9.918;2022-09-27T08:02:38;6.23;;;4.70;;
8113;SDS011;4099;52.684;9.918;2022-09-27T08:07:52;5.77;;;4.30;;
8113;SDS011;4099;52.684;9.918;2022-09-27T08:13:10;5.73;;;5.10;;
8113;SDS011;4099;52.684;9.918;2022-09-27T08:18:23;5.50;;;4.77;;
8113;SDS011;4099;52.684;9.918;2022-09-27T08:23:34;6.03;;;4.67;;
8113;SDS011;4099;52.684;9.918;2022-09-27T08:29:05;7.20;;;5.03;;
8113;SDS011;4099;52.684;9.918;2022-09-27T08:34:15;5.83;;;5.13;;
8113;SDS011;4099;52.684;9.918;2022-09-27T08:39:18;5.20;;;4.67;;
8113;SDS011;4099;52.684;9.918;2022-09-27T08:44:27;5.47;;;4.97;;
8113;SDS011;4099;52.684;9.918;2022-09-27T08:50:03;5.37;;;4.87;;
8113;SDS011;4099;52.684;9.918;2022-09-27T08:55:18;5.70;;;4.60;;
8113;SDS011;4099;52.684;9.918;2022-09-27T09:00:38;5.63;;;4.47;;
8113;SDS011;4099;52.684;9.918;2022-09-27T09:06:00;5.40;;;4.13;;
8113;SDS011;4099;52.684;9.918;2022-09-27T09:11:24;5.67;;;3.67;;
8113;SDS011;4099;52.684;9.918;2022-09-27T09:16:56;4.90;;;3.93;;
8113;SDS011;4099;52.684;9.918;2022-09-27T09:22:28;3.60;;;3.30;;
8113;SDS011;4099;52.684;9.918;2022-09-27T09:27:41;4.00;;;3.60;;
8113;SDS011;4099;52.684;9.918;2022-09-27T09:33:07;4.23;;;3.60;;
8113;SDS011;4099;52.684;9.918;2022-09-27T09:38:35;3.70;;;3.40;;
8113;SDS011;4099;52.684;9.918;2022-09-27T09:43:46;4.30;;;3.37;;
8113;SDS011;4099;52.684;9.918;2022-09-27T09:49:09;5.07;;;3.40;;
8113;SDS011;4099;52.684;9.918;2022-09-27T09:54:31;4.40;;;2.80;;
8113;SDS011;4099;52.684;9.918;2022-09-27T09:59:41;3.20;;;2.97;;
8113;SDS011;4099;52.684;9.918;2022-09-27T10:04:50;3.13;;;2.73;;
8113;SDS011;4099;52.684;9.918;2022-09-27T10:09:57;3.43;;;2.50;;
8113;SDS011;4099;52.684;9.918;2022-09-27T10:15:23;3.80;;;2.37;;
8113;SDS011;4099;52.684;9.918;2022-09-27T10:20:35;2.20;;;2.00;;
8113;SDS011;4099;52.684;9.918;2022-09-27T10:25:48;3.13;;;2.30;;
8113;SDS011;4099;52.684;9.918;2022-09-27T10:31:10;2.77;;;1.53;;
8113;SDS011;4099;52.684;9.918;2022-09-27T10:36:27;2.07;;;1.70;;
8113;SDS011;4099;52.684;9.918;2022-09-27T10:41:50;2.27;;;1.47;;
8113;SDS011;4099;52.684;9.918;2022-09-27T10:47:05;3.33;;;1.40;;
8113;SDS011;4099;52.684;9.918;2022-09-27T10:52:34;2.50;;;1.63;;
8113;SDS011;4099;52.684;9.918;2022-09-27T10:57:50;3.70;;;1.57;;
8113;SDS011;4099;52.684;9.918;2022-09-27T11:02:59;1.40;;;1.30;;
8113;SDS011;4099;52.684;9.918;2022-09-27T11:08:22;4.20;;;1.73;;
8113;SDS011;4099;52.684;9.918;2022-09-27T11:13:56;1.60;;;1.33;;
8113;SDS011;4099;52.684;9.918;2022-09-27T11:19:34;1.37;;;1.10;;
8113;SDS011;4099;52.684;9.918;2022-09-27T11:24:59;3.13;;;1.20;;
8113;SDS011;4099;52.684;9.918;2022-09-27T11:30:28;2.80;;;1.13;;
8113;SDS011;4099;52.684;9.918;2022-09-27T11:36:10;2.10;;;0.83;;
8113;SDS011;4099;52.684;9.918;2022-09-27T11:41:29;1.97;;;1.80;;
8113;SDS011;4099;52.684;9.918;2022-09-27T11:46:56;1.83;;;1.47;;
8113;SDS011;4099;52.684;9.918;2022-09-27T11:52:22;38.17;;;22.43;;
8113;SDS011;4099;52.684;9.918;2022-09-27T11:57:41;28.53;;;20.37;;
8113;SDS011;4099;52.684;9.918;2022-09-27T12:03:19;2.60;;;2.37;;
8113;SDS011;4099;52.684;9.918;2022-09-27T12:08:54;2.43;;;0.90;;
8113;SDS011;4099;52.684;9.918;2022-09-27T12:14:09;2.27;;;1.03;;
8113;SDS011;4099;52.684;9.918;2022-09-27T12:19:25;1.80;;;1.03;;
8113;SDS011;4099;52.684;9.918;2022-09-27T12:24:54;1.10;;;0.90;;
8113;SDS011;4099;52.684;9.918;2022-09-27T12:30:16;1.37;;;0.80;;
8113;SDS011;4099;52.684;9.918;2022-09-27T12:35:33;1.37;;;1.13;;
8113;SDS011;4099;52.684;9.918;2022-09-27T12:40:46;2.60;;;1.07;;
8113;SDS011;4099;52.684;9.918;2022-09-27T12:46:10;1.40;;;1.07;;
8113;SDS011;4099;52.684;9.918;2022-09-27T12:51:26;2.27;;;1.10;;
8113;SDS011;4099;52.684;9.918;2022-09-27T12:56:48;1.80;;;0.97;;
8113;SDS011;4099;52.684;9.918;2022-09-27T13:08:00;2.73;;;2.00;;
8113;SDS011;4099;52.684;9.918;2022-09-27T13:13:27;2.90;;;1.83;;
8113;SDS011;4099;52.684;9.918;2022-09-27T13:18:50;2.43;;;2.20;;
8113;SDS011;4099;52.684;9.918;2022-09-27T13:24:13;2.97;;;1.83;;
8113;SDS011;4099;52.684;9.918;2022-09-27T13:41:54;1.33;;;1.20;;
8113;SDS011;4099;52.684;9.918;2022-09-27T13:47:26;2.10;;;1.80;;
8113;SDS011;4099;52.684;9.918;2022-09-27T13:52:42;2.20;;;1.30;;
8113;SDS011;4099;52.684;9.918;2022-09-27T13:58:06;4.10;;;2.00;;
8113;SDS011;4099;52.684;9.918;2022-09-27T14:03:24;3.23;;;1.60;;
8113;SDS011;4099;52.684;9.918;2022-09-27T14:08:42;4.13;;;2.50;;
8113;SDS011;4099;52.684;9.918;2022-09-27T14:14:05;3.63;;;1.90;;
8113;SDS011;4099;52.684;9.918;2022-09-27T14:19:28;2.10;;;1.23;;
8113;SDS011;4099;52.684;9.918;2022-09-27T14:24:42;2.90;;;1.13;;
8113;SDS011;4099;52.684;9.918;2022-09-27T14:30:25;1.67;;;1.30;;
8113;SDS011;4099;52.684;9.918;2022-09-27T14:35:50;2.37;;;1.57;;
8113;SDS011;4099;52.684;9.918;2022-09-27T14:41:15;2.40;;;1.87;;
8113;SDS011;4099;52.684;9.918;2022-09-27T14:46:25;1.80;;;1.40;;
8113;SDS011;4099;52.684;9.918;2022-09-27T14:51:41;1.00;;;1.00;;
8113;SDS011;4099;52.684;9.918;2022-09-27T14:56:53;1.23;;;0.80;;
8113;SDS011;4099;52.684;9.918;2022-09-27T15:02:08;1.50;;;1.40;;
8113;SDS011;4099;52.684;9.918;2022-09-27T15:07:23;1.17;;;0.77;;
8113;SDS011;4099;52.684;9.918;2022-09-27T15:12:30;0.63;;;0.53;;
8113;SDS011;4099;52.684;9.918;2022-09-27T15:17:42;0.70;;;0.70;;
8113;SDS011;4099;52.684;9.918;2022-09-27T15:22:47;0.70;;;0.70;;
8113;SDS011;4099;52.684;9.918;2022-09-27T15:27:51;2.10;;;0.80;;
8113;SDS011;4099;52.684;9.918;2022-09-27T15:33:04;0.70;;;0.70;;
8113;SDS011;4099;52.684;9.918;2022-09-27T15:38:22;1.07;;;0.70;;
8113;SDS011;4099;52.684;9.918;2022-09-27T15:43:34;2.63;;;1.40;;
8113;SDS011;4099;52.684;9.918;2022-09-27T15:48:48;3.57;;;2.60;;
8113;SDS011;4099;52.684;9.918;2022-09-27T15:54:39;4.50;;;3.00;;
8113;SDS011;4099;52.684;9.918;2022-09-27T15:59:46;6.83;;;5.50;;
8113;SDS011;4099;52.684;9.918;2022-09-27T16:05:04;1.90;;;1.70;;
8113;SDS011;4099;52.684;9.918;2022-09-27T16:10:11;3.83;;;3.40;;
8113;SDS011;4099;52.684;9.918;2022-09-27T16:15:19;5.70;;;3.27;;
8113;SDS011;4099;52.684;9.918;2022-09-27T16:20:58;3.40;;;2.10;;
8113;SDS011;4099;52.684;9.918;2022-09-27T16:26:09;2.23;;;2.03;;
8113;SDS011;4099;52.684;9.918;2022-09-27T16:31:19;1.83;;;1.67;;
8113;SDS011;4099;52.684;9.918;2022-09-27T16:36:35;1.53;;;1.43;;
8113;SDS011;4099;52.684;9.918;2022-09-27T16:41:45;2.50;;;2.30;;
8113;SDS011;4099;52.684;9.918;2022-09-27T16:46:53;2.53;;;2.20;;
8113;SDS011;4099;52.684;9.918;2022-09-27T16:51:57;1.80;;;1.70;;
8113;SDS011;4099;52.684;9.918;2022-09-27T16:57:10;2.63;;;1.57;;
8113;SDS011;4099;52.684;9.918;2022-09-27T17:02:25;3.17;;;1.97;;
8113;SDS011;4099;52.684;9.918;2022-09-27T17:07:40;2.90;;;2.47;;
8113;SDS011;4099;52.684;9.918;2022-09-27T17:12:49;2.43;;;2.23;;
8113;SDS011;4099;52.684;9.918;2022-09-27T17:18:05;1.93;;;1.83;;
8113;SDS011;4099;52.684;9.918;2022-09-27T17:23:20;1.97;;;1.87;;
8113;SDS011;4099;52.684;9.918;2022-09-27T17:28:24;2.13;;;1.83;;
8113;SDS011;4099;52.684;9.918;2022-09-27T17:33:30;2.40;;;2.13;;
8113;SDS011;4099;52.684;9.918;2022-09-27T17:38:43;2.10;;;1.90;;
8113;SDS011;4099;52.684;9.918;2022-09-27T17:43:50;2.43;;;2.23;;
8113;SDS011;4099;52.684;9.918;2022-09-27T17:48:54;2.90;;;2.50;;
8113;SDS011;4099;52.684;9.918;2022-09-27T17:54:17;2.50;;;2.30;;
8113;SDS011;4099;52.684;9.918;2022-09-27T17:59:27;2.73;;;2.10;;
8113;SDS011;4099;52.684;9.918;2022-09-27T18:04:31;2.17;;;1.70;;
8113;SDS011;4099;52.684;9.918;2022-09-27T18:09:36;2.50;;;2.30;;
8113;SDS011;4099;52.684;9.918;2022-09-27T18:14:43;2.80;;;2.00;;
8113;SDS011;4099;52.684;9.918;2022-09-27T18:19:52;3.13;;;2.90;;
8113;SDS011;4099;52.684;9.918;2022-09-27T18:25:01;4.43;;;3.43;;
8113;SDS011;4099;52.684;9.918;2022-09-27T18:30:08;3.77;;;2.33;;
8113;SDS011;4099;52.684;9.918;2022-09-27T18:35:15;3.47;;;2.27;;
8113;SDS011;4099;52.684;9.918;2022-09-27T18:40:24;2.20;;;2.00;;
8113;SDS011;4099;52.684;9.918;2022-09-27T18:45:29;2.70;;;2.20;;
8113;SDS011;4099;52.684;9.918;2022-09-27T18:50:36;2.07;;;1.90;;
8113;SDS011;4099;52.684;9.918;2022-09-27T18:55:41;2.50;;;2.30;;
8113;SDS011;4099;52.684;9.918;2022-09-27T19:00:45;3.13;;;1.77;;
8113;SDS011;4099;52.684;9.918;2022-09-27T19:05:52;2.07;;;1.87;;
8113;SDS011;4099;52.684;9.918;2022-09-27T19:11:02;3.10;;;2.80;;
8113;SDS011;4099;52.684;9.918;2022-09-27T19:16:10;2.90;;;2.60;;
8113;SDS011;4099;52.684;9.918;2022-09-27T19:21:13;3.27;;;2.40;;
8113;SDS011;4099;52.684;9.918;2022-09-27T19:26:23;3.40;;;1.93;;
8113;SDS011;4099;52.684;9.918;2022-09-27T19:31:29;2.80;;;2.23;;
8113;SDS011;4099;52.684;9.918;2022-09-27T19:36:35;2.23;;;2.03;;
8113;SDS011;4099;52.684;9.918;2022-09-27T19:41:43;3.43;;;2.90;;
8113;SDS011;4099;52.684;9.918;2022-09-27T19:46:47;3.83;;;3.50;;
8113;SDS011;4099;52.684;9.918;2022-09-27T19:51:53;3.37;;;3.03;;
8113;SDS011;4099;52.684;9.918;2022-09-27T19:56:59;4.70;;;3.40;;
8113;SDS011;4099;52.684;9.918;2022-09-27T20:02:03;4.57;;;3.27;;
8113;SDS011;4099;52.684;9.918;2022-09-27T20:07:09;4.67;;;3.40;;
8113;SDS011;4099;52.684;9.918;2022-09-27T20:12:21;3.70;;;3.00;;
8113;SDS011;4099;52.684;9.918;2022-09-27T20:17:30;3.83;;;3.00;;
8113;SDS011;4099;52.684;9.918;2022-09-27T20:22:34;3.50;;;3.20;;
8113;SDS011;4099;52.684;9.918;2022-09-27T20:27:40;4.23;;;3.07;;
8113;SDS011;4099;52.684;9.918;2022-09-27T20:32:44;3.67;;;3.37;;
8113;SDS011;4099;52.684;9.918;2022-09-27T20:38:08;3.53;;;3.23;;
8113;SDS011;4099;52.684;9.918;2022-09-27T20:43:14;4.67;;;4.20;;
8113;SDS011;4099;52.684;9.918;2022-09-27T20:48:21;4.93;;;4.47;;
8113;SDS011;4099;52.684;9.918;2022-09-27T20:53:24;4.70;;;4.20;;
8113;SDS011;4099;52.684;9.918;2022-09-27T20:58:33;4.57;;;4.13;;
8113;SDS011;4099;52.684;9.918;2022-09-27T21:03:36;5.70;;;4.43;;
8113;SDS011;4099;52.684;9.918;2022-09-27T21:08:43;4.57;;;4.17;;
8113;SDS011;4099;52.684;9.918;2022-09-27T21:13:49;4.83;;;4.23;;
8113;SDS011;4099;52.684;9.918;2022-09-27T21:18:55;5.67;;;4.80;;
8113;SDS011;4099;52.684;9.918;2022-09-27T21:24:00;5.17;;;4.67;;
8113;SDS011;4099;52.684;9.918;2022-09-27T21:29:05;4.90;;;3.83;;
8113;SDS011;4099;52.684;9.918;2022-09-27T21:34:11;5.00;;;3.80;;
8113;SDS011;4099;52.684;9.918;2022-09-27T21:39:28;3.70;;;3.40;;
8113;SDS011;4099;52.684;9.918;2022-09-27T21:44:34;5.37;;;3.70;;
8113;SDS011;4099;52.684;9.918;2022-09-27T21:49:38;4.40;;;3.77;;
8113;SDS011;4099;52.684;9.918;2022-09-27T21:54:41;5.37;;;3.77;;
8113;SDS011;4099;52.684;9.918;2022-09-27T21:59:47;4.43;;;4.03;;
8113;SDS011;4099;52.684;9.918;2022-09-27T22:04:55;5.40;;;4.90;;
8113;SDS011;4099;52.684;9.918;2022-09-27T22:10:01;6.17;;;5.00;;
8113;SDS011;4099;52.684;9.918;2022-09-27T22:15:07;5.57;;;4.73;;
8113;SDS011;4099;52.684;9.918;2022-09-27T22:20:12;5.57;;;5.00;;
8113;SDS011;4099;52.684;9.918;2022-09-27T22:25:15;6.83;;;5.30;;
8113;SDS011;4099;52.684;9.918;2022-09-27T22:30:20;7.60;;;5.60;;
8113;SDS011;4099;52.684;9.918;2022-09-27T22:35:27;6.30;;;5.20;;
8113;SDS011;4099;52.684;9.918;2022-09-27T22:40:31;6.13;;;5.50;;
8113;SDS011;4099;52.684;9.918;2022-09-27T22:45:35;5.73;;;5.13;;
8113;SDS011;4099;52.684;9.918;2022-09-27T22:50:41;5.80;;;5.20;;
8113;SDS011;4099;52.684;9.918;2022-09-27T22:55:53;6.37;;;5.33;;
8113;SDS011;4099;52.684;9.918;2022-09-27T23:01:07;5.97;;;5.37;;
8113;SDS011;4099;52.684;9.918;2022-09-27T23:06:17;7.27;;;5.87;;
8113;SDS011;4099;52.684;9.918;2022-09-27T23:11:21;6.83;;;5.17;;
8113;SDS011;4099;52.684;9.918;2022-09-27T23:16:27;6.90;;;5.40;;
8113;SDS011;4099;52.684;9.918;2022-09-27T23:21:33;5.80;;;5.20;;
8113;SDS011;4099;52.684;9.918;2022-09-27T23:26:36;8.03;;;5.53;;
8113;SDS011;4099;52.684;9.918;2022-09-27T23:31:41;6.77;;;5.87;;
8113;SDS011;4099;52.684;9.918;2022-09-27T23:36:44;6.73;;;6.03;;
8113;SDS011;4099;52.684;9.918;2022-09-27T23:41:50;7.10;;;6.40;;
8113;SDS011;4099;52.684;9.918;2022-09-27T23:46:57;6.60;;;6.00;;
8113;SDS011;4099;52.684;9.918;2022-09-27T23:52:02;6.60;;;5.60;;
8113;SDS011;4099;52.684;9.918;2022-09-27T23:57:09;7.13;;;6.20;;
